sensor_id;sensor_type;location;lat;lon;timestamp;temperature;humidity
262;DHT22;114;48.260;10.988;2023-02-04T00:02:25;4.60;99.90
262;DHT22;114;48.260;10.988;2023-02-04T00:04:50;4.60;99.90
262;DHT22;114;48.260;10.988;2023-02-04T00:07:16;4.60;99.90
262;DHT22;114;48.260;10.988;2023-02-04T00:09:48;4.60;99.90
262;DHT22;114;48.260;10.988;2023-02-04T00:12:15;4.60;99.90
262;DHT22;114;48.260;10.988;2023-02-04T00:14:41;4.60;99.90
262;DHT22;114;48.260;10.988;2023-02-04T00:17:06;4.60;99.90
262;DHT22;114;48.260;10.988;2023-02-04T00:19:35;4.60;99.90
262;DHT22;114;48.260;10.988;2023-02-04T00:22:04;4.70;99.90
262;DHT22;114;48.260;10.988;2023-02-04T00:24:31;4.70;99.90
262;DHT22;114;48.260;10.988;2023-02-04T00:26:57;4.60;99.90
262;DHT22;114;48.260;10.988;2023-02-04T00:29:22;4.60;99.90
262;DHT22;114;48.260;10.988;2023-02-04T00:31:48;4.60;99.90
262;DHT22;114;48.260;10.988;2023-02-04T00:34:17;4.70;99.90
262;DHT22;114;48.260;10.988;2023-02-04T00:36:45;4.70;99.90
262;DHT22;114;48.260;10.988;2023-02-04T00:39:11;4.70;99.90
262;DHT22;114;48.260;10.988;2023-02-04T00:41:36;4.70;99.90
262;DHT22;114;48.260;10.988;2023-02-04T00:44:05;4.80;99.90
262;DHT22;114;48.260;10.988;2023-02-04T00:46:31;4.80;99.90
262;DHT22;114;48.260;10.988;2023-02-04T00:48:59;4.80;99.90
262;DHT22;114;48.260;10.988;2023-02-04T00:51:27;4.80;99.90
262;DHT22;114;48.260;10.988;2023-02-04T00:53:53;4.80;99.90
262;DHT22;114;48.260;10.988;2023-02-04T00:56:18;4.90;99.90
262;DHT22;114;48.260;10.988;2023-02-04T00:58:45;4.90;99.90
262;DHT22;114;48.260;10.988;2023-02-04T01:01:11;4.90;99.90
262;DHT22;114;48.260;10.988;2023-02-04T01:03:36;4.80;99.90
262;DHT22;114;48.260;10.988;2023-02-04T01:06:02;4.80;99.90
262;DHT22;114;48.260;10.988;2023-02-04T01:08:28;4.80;99.90
262;DHT22;114;48.260;10.988;2023-02-04T01:10:54;4.90;99.90
262;DHT22;114;48.260;10.988;2023-02-04T01:13:21;4.90;99.90
262;DHT22;114;48.260;10.988;2023-02-04T01:15:48;4.90;99.90
262;DHT22;114;48.260;10.988;2023-02-04T01:18:14;4.90;99.90
262;DHT22;114;48.260;10.988;2023-02-04T01:20:39;5.00;99.90
262;DHT22;114;48.260;10.988;2023-02-04T01:23:05;5.00;99.90
262;DHT22;114;48.260;10.988;2023-02-04T01:25:32;5.00;99.90
262;DHT22;114;48.260;10.988;2023-02-04T01:27:58;5.00;99.90
262;DHT22;114;48.260;10.988;2023-02-04T01:30:24;5.00;99.90
262;DHT22;114;48.260;10.988;2023-02-04T01:32:50;5.00;99.90
262;DHT22;114;48.260;10.988;2023-02-04T01:35:16;5.00;99.90
262;DHT22;114;48.260;10.988;2023-02-04T01:37:41;5.00;99.90
262;DHT22;114;48.260;10.988;2023-02-04T01:40:08;5.00;99.90
262;DHT22;114;48.260;10.988;2023-02-04T01:42:34;5.00;99.90
262;DHT22;114;48.260;10.988;2023-02-04T01:45:00;4.90;99.90
262;DHT22;114;48.260;10.988;2023-02-04T01:47:26;5.00;99.90
262;DHT22;114;48.260;10.988;2023-02-04T01:49:53;4.90;99.90
262;DHT22;114;48.260;10.988;2023-02-04T01:52:21;4.90;99.90
262;DHT22;114;48.260;10.988;2023-02-04T01:54:48;5.00;99.90
262;DHT22;114;48.260;10.988;2023-02-04T01:57:15;5.00;99.90
262;DHT22;114;48.260;10.988;2023-02-04T01:59:45;5.00;99.90
262;DHT22;114;48.260;10.988;2023-02-04T02:02:37;5.00;99.90
262;DHT22;114;48.260;10.988;2023-02-04T02:05:06;5.00;99.90
262;DHT22;114;48.260;10.988;2023-02-04T02:07:34;5.00;99.90
262;DHT22;114;48.260;10.988;2023-02-04T02:10:01;5.00;99.90
262;DHT22;114;48.260;10.988;2023-02-04T02:12:27;5.00;99.90
262;DHT22;114;48.260;10.988;2023-02-04T02:14:52;5.00;99.90
262;DHT22;114;48.260;10.988;2023-02-04T02:17:18;5.10;99.90
262;DHT22;114;48.260;10.988;2023-02-04T02:19:47;5.00;99.90
262;DHT22;114;48.260;10.988;2023-02-04T02:22:26;5.10;99.90
262;DHT22;114;48.260;10.988;2023-02-04T02:24:53;5.00;99.90
262;DHT22;114;48.260;10.988;2023-02-04T02:27:19;5.10;99.90
262;DHT22;114;48.260;10.988;2023-02-04T02:29:45;5.10;99.90
262;DHT22;114;48.260;10.988;2023-02-04T02:32:12;5.10;99.90
262;DHT22;114;48.260;10.988;2023-02-04T02:34:38;5.10;99.90
262;DHT22;114;48.260;10.988;2023-02-04T02:37:05;5.10;99.90
262;DHT22;114;48.260;10.988;2023-02-04T02:39:34;5.10;99.90
262;DHT22;114;48.260;10.988;2023-02-04T02:42:00;5.10;99.90
262;DHT22;114;48.260;10.988;2023-02-04T02:44:26;5.00;99.90
262;DHT22;114;48.260;10.988;2023-02-04T02:46:52;5.00;99.90
262;DHT22;114;48.260;10.988;2023-02-04T02:49:19;5.00;99.90
262;DHT22;114;48.260;10.988;2023-02-04T02:51:46;5.00;99.90
262;DHT22;114;48.260;10.988;2023-02-04T02:54:33;5.00;99.90
262;DHT22;114;48.260;10.988;2023-02-04T02:56:59;5.00;99.90
262;DHT22;114;48.260;10.988;2023-02-04T02:59:26;5.00;99.90
262;DHT22;114;48.260;10.988;2023-02-04T03:01:55;5.00;99.90
262;DHT22;114;48.260;10.988;2023-02-04T03:04:24;5.00;99.90
262;DHT22;114;48.260;10.988;2023-02-04T03:06:51;5.00;99.90
262;DHT22;114;48.260;10.988;2023-02-04T03:09:18;5.00;99.90
262;DHT22;114;48.260;10.988;2023-02-04T03:11:44;4.90;99.90
262;DHT22;114;48.260;10.988;2023-02-04T03:14:11;4.90;99.90
262;DHT22;114;48.260;10.988;2023-02-04T03:16:37;4.80;99.90
262;DHT22;114;48.260;10.988;2023-02-04T03:19:05;4.80;99.90
262;DHT22;114;48.260;10.988;2023-02-04T03:21:32;4.70;99.90
262;DHT22;114;48.260;10.988;2023-02-04T03:24:02;4.70;99.90
262;DHT22;114;48.260;10.988;2023-02-04T03:26:29;4.60;99.80
262;DHT22;114;48.260;10.988;2023-02-04T03:28:56;4.60;98.40
262;DHT22;114;48.260;10.988;2023-02-04T03:31:21;4.60;96.80
262;DHT22;114;48.260;10.988;2023-02-04T03:33:47;4.50;95.70
262;DHT22;114;48.260;10.988;2023-02-04T03:36:13;4.50;95.60
262;DHT22;114;48.260;10.988;2023-02-04T03:38:40;4.40;95.10
262;DHT22;114;48.260;10.988;2023-02-04T03:41:06;4.40;94.80
262;DHT22;114;48.260;10.988;2023-02-04T03:43:31;4.30;94.60
262;DHT22;114;48.260;10.988;2023-02-04T03:45:57;4.30;93.30
262;DHT22;114;48.260;10.988;2023-02-04T03:48:23;4.20;93.60
262;DHT22;114;48.260;10.988;2023-02-04T03:50:49;4.20;92.80
262;DHT22;114;48.260;10.988;2023-02-04T03:53:15;4.20;91.70
262;DHT22;114;48.260;10.988;2023-02-04T03:55:41;4.20;90.00
262;DHT22;114;48.260;10.988;2023-02-04T03:58:07;4.20;85.80
262;DHT22;114;48.260;10.988;2023-02-04T04:00:33;4.30;74.00
262;DHT22;114;48.260;10.988;2023-02-04T04:03:01;4.40;72.30
262;DHT22;114;48.260;10.988;2023-02-04T04:05:26;4.30;71.00
262;DHT22;114;48.260;10.988;2023-02-04T04:07:53;4.20;73.30
262;DHT22;114;48.260;10.988;2023-02-04T04:10:19;4.20;73.60
262;DHT22;114;48.260;10.988;2023-02-04T04:12:45;4.20;73.30
262;DHT22;114;48.260;10.988;2023-02-04T04:15:11;4.10;75.70
262;DHT22;114;48.260;10.988;2023-02-04T04:17:39;4.10;76.20
262;DHT22;114;48.260;10.988;2023-02-04T04:20:05;4.10;78.30
262;DHT22;114;48.260;10.988;2023-02-04T04:22:32;4.00;78.80
262;DHT22;114;48.260;10.988;2023-02-04T04:24:59;4.00;79.50
262;DHT22;114;48.260;10.988;2023-02-04T04:27:26;4.00;78.90
262;DHT22;114;48.260;10.988;2023-02-04T04:29:51;3.90;80.70
262;DHT22;114;48.260;10.988;2023-02-04T04:32:18;3.90;81.10
262;DHT22;114;48.260;10.988;2023-02-04T04:34:44;3.80;83.00
262;DHT22;114;48.260;10.988;2023-02-04T04:37:09;3.80;83.10
262;DHT22;114;48.260;10.988;2023-02-04T04:39:36;3.70;83.60
262;DHT22;114;48.260;10.988;2023-02-04T04:42:02;3.70;83.60
262;DHT22;114;48.260;10.988;2023-02-04T04:44:28;3.70;85.40
262;DHT22;114;48.260;10.988;2023-02-04T04:46:56;3.70;86.30
262;DHT22;114;48.260;10.988;2023-02-04T04:49:22;3.60;85.20
262;DHT22;114;48.260;10.988;2023-02-04T04:51:48;3.60;85.80
262;DHT22;114;48.260;10.988;2023-02-04T04:54:14;3.60;86.70
262;DHT22;114;48.260;10.988;2023-02-04T04:56:39;3.50;85.40
262;DHT22;114;48.260;10.988;2023-02-04T04:59:05;3.50;85.60
262;DHT22;114;48.260;10.988;2023-02-04T05:01:31;3.40;85.50
262;DHT22;114;48.260;10.988;2023-02-04T05:04:00;3.40;84.80
262;DHT22;114;48.260;10.988;2023-02-04T05:06:28;3.40;84.10
262;DHT22;114;48.260;10.988;2023-02-04T05:08:54;3.30;85.70
262;DHT22;114;48.260;10.988;2023-02-04T05:11:22;3.30;86.90
262;DHT22;114;48.260;10.988;2023-02-04T05:13:47;3.30;87.80
262;DHT22;114;48.260;10.988;2023-02-04T05:16:14;3.20;86.70
262;DHT22;114;48.260;10.988;2023-02-04T05:18:41;3.20;85.60
262;DHT22;114;48.260;10.988;2023-02-04T05:21:07;3.20;84.60
262;DHT22;114;48.260;10.988;2023-02-04T05:23:33;3.10;85.40
262;DHT22;114;48.260;10.988;2023-02-04T05:25:59;3.10;84.90
262;DHT22;114;48.260;10.988;2023-02-04T05:28:26;3.10;81.70
262;DHT22;114;48.260;10.988;2023-02-04T05:30:52;3.00;82.30
262;DHT22;114;48.260;10.988;2023-02-04T05:33:17;3.00;83.60
262;DHT22;114;48.260;10.988;2023-02-04T05:35:43;2.90;81.30
262;DHT22;114;48.260;10.988;2023-02-04T05:38:08;2.90;80.00
262;DHT22;114;48.260;10.988;2023-02-04T05:40:34;3.00;78.40
262;DHT22;114;48.260;10.988;2023-02-04T05:43:01;3.00;76.60
262;DHT22;114;48.260;10.988;2023-02-04T05:45:27;2.90;76.10
262;DHT22;114;48.260;10.988;2023-02-04T05:47:52;2.90;77.80
262;DHT22;114;48.260;10.988;2023-02-04T05:50:18;2.90;76.60
262;DHT22;114;48.260;10.988;2023-02-04T05:52:44;2.90;76.40
262;DHT22;114;48.260;10.988;2023-02-04T05:55:11;2.80;77.80
262;DHT22;114;48.260;10.988;2023-02-04T05:57:37;2.80;80.40
262;DHT22;114;48.260;10.988;2023-02-04T06:00:10;2.70;80.50
262;DHT22;114;48.260;10.988;2023-02-04T06:02:36;2.70;80.30
262;DHT22;114;48.260;10.988;2023-02-04T06:05:02;2.70;80.20
262;DHT22;114;48.260;10.988;2023-02-04T06:07:28;2.70;81.00
262;DHT22;114;48.260;10.988;2023-02-04T06:09:53;2.60;82.70
262;DHT22;114;48.260;10.988;2023-02-04T06:12:19;2.60;86.80
262;DHT22;114;48.260;10.988;2023-02-04T06:14:45;2.70;85.70
262;DHT22;114;48.260;10.988;2023-02-04T06:17:11;2.60;85.70
262;DHT22;114;48.260;10.988;2023-02-04T06:19:38;2.70;86.00
262;DHT22;114;48.260;10.988;2023-02-04T06:22:04;2.70;85.60
262;DHT22;114;48.260;10.988;2023-02-04T06:24:30;2.60;82.00
262;DHT22;114;48.260;10.988;2023-02-04T06:26:56;2.60;81.40
262;DHT22;114;48.260;10.988;2023-02-04T06:29:23;2.60;80.30
262;DHT22;114;48.260;10.988;2023-02-04T06:31:48;2.60;85.40
262;DHT22;114;48.260;10.988;2023-02-04T06:34:14;2.60;84.80
262;DHT22;114;48.260;10.988;2023-02-04T06:36:40;2.60;83.50
262;DHT22;114;48.260;10.988;2023-02-04T06:39:07;2.60;82.10
262;DHT22;114;48.260;10.988;2023-02-04T06:41:32;2.60;82.00
262;DHT22;114;48.260;10.988;2023-02-04T06:43:59;2.60;79.60
262;DHT22;114;48.260;10.988;2023-02-04T06:46:25;2.60;79.80
262;DHT22;114;48.260;10.988;2023-02-04T06:48:50;2.60;79.80
262;DHT22;114;48.260;10.988;2023-02-04T06:51:17;2.70;79.60
262;DHT22;114;48.260;10.988;2023-02-04T06:53:43;2.70;77.30
262;DHT22;114;48.260;10.988;2023-02-04T06:56:11;2.70;77.70
262;DHT22;114;48.260;10.988;2023-02-04T06:58:37;2.80;77.80
262;DHT22;114;48.260;10.988;2023-02-04T07:01:04;2.80;78.70
262;DHT22;114;48.260;10.988;2023-02-04T07:03:30;3.30;94.90
262;DHT22;114;48.260;10.988;2023-02-04T07:05:56;4.60;96.80
262;DHT22;114;48.260;10.988;2023-02-04T07:08:22;4.10;71.90
262;DHT22;114;48.260;10.988;2023-02-04T07:10:47;3.70;60.70
262;DHT22;114;48.260;10.988;2023-02-04T07:13:13;3.60;60.90
262;DHT22;114;48.260;10.988;2023-02-04T07:15:40;3.50;58.70
262;DHT22;114;48.260;10.988;2023-02-04T07:18:05;3.40;59.70
262;DHT22;114;48.260;10.988;2023-02-04T07:20:31;3.30;60.00
262;DHT22;114;48.260;10.988;2023-02-04T07:22:59;3.30;62.00
262;DHT22;114;48.260;10.988;2023-02-04T07:25:26;3.30;60.90
262;DHT22;114;48.260;10.988;2023-02-04T07:27:53;3.40;60.40
262;DHT22;114;48.260;10.988;2023-02-04T07:30:21;3.40;60.00
262;DHT22;114;48.260;10.988;2023-02-04T07:32:48;3.40;60.00
262;DHT22;114;48.260;10.988;2023-02-04T07:35:13;3.40;60.10
262;DHT22;114;48.260;10.988;2023-02-04T07:37:42;3.50;59.00
262;DHT22;114;48.260;10.988;2023-02-04T07:40:10;3.40;59.40
262;DHT22;114;48.260;10.988;2023-02-04T07:42:36;3.50;56.20
262;DHT22;114;48.260;10.988;2023-02-04T07:45:02;3.50;55.60
262;DHT22;114;48.260;10.988;2023-02-04T07:47:28;3.60;51.20
262;DHT22;114;48.260;10.988;2023-02-04T07:49:54;3.70;51.80
262;DHT22;114;48.260;10.988;2023-02-04T07:52:25;3.70;50.10
262;DHT22;114;48.260;10.988;2023-02-04T07:54:52;3.80;48.30
262;DHT22;114;48.260;10.988;2023-02-04T07:57:18;3.80;47.60
262;DHT22;114;48.260;10.988;2023-02-04T07:59:44;3.90;46.70
262;DHT22;114;48.260;10.988;2023-02-04T08:02:10;3.90;44.90
262;DHT22;114;48.260;10.988;2023-02-04T08:04:36;4.00;44.60
262;DHT22;114;48.260;10.988;2023-02-04T08:07:05;4.10;44.40
262;DHT22;114;48.260;10.988;2023-02-04T08:09:31;4.10;43.20
262;DHT22;114;48.260;10.988;2023-02-04T08:11:57;4.10;41.20
262;DHT22;114;48.260;10.988;2023-02-04T08:14:25;4.20;42.30
262;DHT22;114;48.260;10.988;2023-02-04T08:16:51;4.20;41.00
262;DHT22;114;48.260;10.988;2023-02-04T08:19:18;4.30;39.60
262;DHT22;114;48.260;10.988;2023-02-04T08:21:47;4.30;38.60
262;DHT22;114;48.260;10.988;2023-02-04T08:24:14;4.30;37.30
262;DHT22;114;48.260;10.988;2023-02-04T08:26:42;4.40;36.70
262;DHT22;114;48.260;10.988;2023-02-04T08:29:08;4.40;35.00
262;DHT22;114;48.260;10.988;2023-02-04T08:31:36;4.50;35.40
262;DHT22;114;48.260;10.988;2023-02-04T08:34:04;4.40;36.60
262;DHT22;114;48.260;10.988;2023-02-04T08:36:31;4.40;37.70
262;DHT22;114;48.260;10.988;2023-02-04T08:38:56;4.40;34.70
262;DHT22;114;48.260;10.988;2023-02-04T08:41:23;4.50;32.90
262;DHT22;114;48.260;10.988;2023-02-04T08:43:49;4.50;34.20
262;DHT22;114;48.260;10.988;2023-02-04T08:46:15;4.50;35.40
262;DHT22;114;48.260;10.988;2023-02-04T08:48:42;4.50;34.90
262;DHT22;114;48.260;10.988;2023-02-04T08:51:07;4.60;34.30
262;DHT22;114;48.260;10.988;2023-02-04T08:53:33;4.60;31.80
262;DHT22;114;48.260;10.988;2023-02-04T08:56:00;4.80;36.80
262;DHT22;114;48.260;10.988;2023-02-04T08:58:25;5.00;25.80
262;DHT22;114;48.260;10.988;2023-02-04T09:00:51;5.00;24.80
262;DHT22;114;48.260;10.988;2023-02-04T09:03:17;5.20;26.20
262;DHT22;114;48.260;10.988;2023-02-04T09:05:42;5.20;21.10
262;DHT22;114;48.260;10.988;2023-02-04T09:08:08;5.30;20.40
262;DHT22;114;48.260;10.988;2023-02-04T09:10:35;5.30;19.40
262;DHT22;114;48.260;10.988;2023-02-04T09:13:01;5.20;20.40
262;DHT22;114;48.260;10.988;2023-02-04T09:15:26;5.20;23.10
262;DHT22;114;48.260;10.988;2023-02-04T09:17:52;5.20;19.50
262;DHT22;114;48.260;10.988;2023-02-04T09:20:20;5.00;21.30
262;DHT22;114;48.260;10.988;2023-02-04T09:22:46;5.10;21.90
262;DHT22;114;48.260;10.988;2023-02-04T09:25:13;5.40;21.30
262;DHT22;114;48.260;10.988;2023-02-04T09:27:40;5.30;19.40
262;DHT22;114;48.260;10.988;2023-02-04T09:30:06;5.50;18.60
262;DHT22;114;48.260;10.988;2023-02-04T09:32:32;5.30;15.70
262;DHT22;114;48.260;10.988;2023-02-04T09:34:57;5.30;17.20
262;DHT22;114;48.260;10.988;2023-02-04T09:37:23;5.30;16.10
262;DHT22;114;48.260;10.988;2023-02-04T09:39:51;5.50;17.10
262;DHT22;114;48.260;10.988;2023-02-04T09:42:17;5.50;16.70
262;DHT22;114;48.260;10.988;2023-02-04T09:44:43;5.60;15.40
262;DHT22;114;48.260;10.988;2023-02-04T09:47:10;5.90;14.70
262;DHT22;114;48.260;10.988;2023-02-04T09:49:40;6.10;11.90
262;DHT22;114;48.260;10.988;2023-02-04T09:52:13;6.50;11.20
262;DHT22;114;48.260;10.988;2023-02-04T09:54:40;6.90;9.10
262;DHT22;114;48.260;10.988;2023-02-04T09:57:16;7.20;2.30
262;DHT22;114;48.260;10.988;2023-02-04T09:59:43;7.10;1.00
262;DHT22;114;48.260;10.988;2023-02-04T10:02:27;7.20;1.00
262;DHT22;114;48.260;10.988;2023-02-04T10:04:55;7.30;1.00
262;DHT22;114;48.260;10.988;2023-02-04T10:07:25;7.20;1.00
262;DHT22;114;48.260;10.988;2023-02-04T10:09:53;7.30;1.00
262;DHT22;114;48.260;10.988;2023-02-04T10:12:19;7.30;1.00
262;DHT22;114;48.260;10.988;2023-02-04T10:14:46;7.50;1.00
262;DHT22;114;48.260;10.988;2023-02-04T10:17:16;7.50;1.00
262;DHT22;114;48.260;10.988;2023-02-04T10:19:42;7.60;1.00
262;DHT22;114;48.260;10.988;2023-02-04T10:22:21;7.40;1.00
262;DHT22;114;48.260;10.988;2023-02-04T10:24:47;7.40;1.00
262;DHT22;114;48.260;10.988;2023-02-04T10:27:13;7.30;1.00
262;DHT22;114;48.260;10.988;2023-02-04T10:29:53;7.40;1.00
262;DHT22;114;48.260;10.988;2023-02-04T10:32:32;7.50;1.00
262;DHT22;114;48.260;10.988;2023-02-04T10:35:00;7.70;1.00
262;DHT22;114;48.260;10.988;2023-02-04T10:37:26;7.80;1.00
262;DHT22;114;48.260;10.988;2023-02-04T10:39:53;7.80;1.00
262;DHT22;114;48.260;10.988;2023-02-04T10:42:26;7.90;1.00
262;DHT22;114;48.260;10.988;2023-02-04T10:44:52;7.70;1.00
262;DHT22;114;48.260;10.988;2023-02-04T10:47:20;7.50;1.00
262;DHT22;114;48.260;10.988;2023-02-04T10:50:15;7.40;1.00
262;DHT22;114;48.260;10.988;2023-02-04T10:52:44;6.80;1.00
262;DHT22;114;48.260;10.988;2023-02-04T10:55:18;6.30;3.80
262;DHT22;114;48.260;10.988;2023-02-04T10:57:48;6.30;7.40
262;DHT22;114;48.260;10.988;2023-02-04T11:00:22;6.10;10.00
262;DHT22;114;48.260;10.988;2023-02-04T11:02:58;5.90;12.80
262;DHT22;114;48.260;10.988;2023-02-04T11:05:31;5.90;14.10
262;DHT22;114;48.260;10.988;2023-02-04T11:07:58;5.80;12.80
262;DHT22;114;48.260;10.988;2023-02-04T11:10:28;5.90;12.70
262;DHT22;114;48.260;10.988;2023-02-04T11:15:44;6.50;9.70
262;DHT22;114;48.260;10.988;2023-02-04T11:18:25;6.80;7.50
262;DHT22;114;48.260;10.988;2023-02-04T11:20:54;6.70;3.50
262;DHT22;114;48.260;10.988;2023-02-04T11:26:14;7.00;6.40
262;DHT22;114;48.260;10.988;2023-02-04T11:33:50;6.90;3.50
262;DHT22;114;48.260;10.988;2023-02-04T11:36:27;6.70;3.30
262;DHT22;114;48.260;10.988;2023-02-04T11:38:52;6.60;5.90
262;DHT22;114;48.260;10.988;2023-02-04T11:41:28;6.60;6.00
262;DHT22;114;48.260;10.988;2023-02-04T11:43:56;6.50;7.10
262;DHT22;114;48.260;10.988;2023-02-04T11:46:22;6.80;7.20
262;DHT22;114;48.260;10.988;2023-02-04T11:48:57;7.40;3.20
262;DHT22;114;48.260;10.988;2023-02-04T11:51:29;7.50;1.60
262;DHT22;114;48.260;10.988;2023-02-04T11:54:01;7.90;1.00
262;DHT22;114;48.260;10.988;2023-02-04T11:56:28;8.70;1.00
262;DHT22;114;48.260;10.988;2023-02-04T11:58:56;9.50;1.00
262;DHT22;114;48.260;10.988;2023-02-04T12:01:28;10.70;1.00
262;DHT22;114;48.260;10.988;2023-02-04T12:04:02;12.40;1.00
262;DHT22;114;48.260;10.988;2023-02-04T12:06:31;13.60;1.00
262;DHT22;114;48.260;10.988;2023-02-04T12:09:07;13.80;1.00
262;DHT22;114;48.260;10.988;2023-02-04T12:11:38;14.80;1.00
262;DHT22;114;48.260;10.988;2023-02-04T12:14:09;14.20;1.00
262;DHT22;114;48.260;10.988;2023-02-04T12:16:45;12.00;1.00
262;DHT22;114;48.260;10.988;2023-02-04T12:19:12;11.10;1.00
262;DHT22;114;48.260;10.988;2023-02-04T12:21:39;10.70;1.00
262;DHT22;114;48.260;10.988;2023-02-04T12:24:09;10.20;1.00
262;DHT22;114;48.260;10.988;2023-02-04T12:26:48;11.30;1.00
262;DHT22;114;48.260;10.988;2023-02-04T12:29:14;11.60;1.00
262;DHT22;114;48.260;10.988;2023-02-04T12:31:39;10.70;1.00
262;DHT22;114;48.260;10.988;2023-02-04T12:34:05;10.10;1.00
262;DHT22;114;48.260;10.988;2023-02-04T12:36:32;9.70;1.00
262;DHT22;114;48.260;10.988;2023-02-04T12:39:03;8.90;1.00
262;DHT22;114;48.260;10.988;2023-02-04T12:41:29;8.20;1.00
262;DHT22;114;48.260;10.988;2023-02-04T12:43:55;9.30;1.00
262;DHT22;114;48.260;10.988;2023-02-04T12:46:22;12.80;1.00
262;DHT22;114;48.260;10.988;2023-02-04T12:48:48;14.90;1.00
262;DHT22;114;48.260;10.988;2023-02-04T12:51:15;16.80;1.00
262;DHT22;114;48.260;10.988;2023-02-04T12:53:40;17.50;1.00
262;DHT22;114;48.260;10.988;2023-02-04T12:56:09;18.10;1.00
262;DHT22;114;48.260;10.988;2023-02-04T12:58:35;18.10;1.00
262;DHT22;114;48.260;10.988;2023-02-04T13:01:01;18.40;1.00
262;DHT22;114;48.260;10.988;2023-02-04T13:03:26;17.90;1.00
262;DHT22;114;48.260;10.988;2023-02-04T13:05:52;16.10;1.00
262;DHT22;114;48.260;10.988;2023-02-04T13:08:18;15.00;1.00
262;DHT22;114;48.260;10.988;2023-02-04T13:10:45;16.30;1.00
262;DHT22;114;48.260;10.988;2023-02-04T13:13:18;17.40;1.00
262;DHT22;114;48.260;10.988;2023-02-04T13:15:45;17.50;1.00
262;DHT22;114;48.260;10.988;2023-02-04T13:18:11;17.70;1.00
262;DHT22;114;48.260;10.988;2023-02-04T13:20:36;18.30;1.00
262;DHT22;114;48.260;10.988;2023-02-04T13:23:02;18.60;1.00
262;DHT22;114;48.260;10.988;2023-02-04T13:25:29;19.00;1.00
262;DHT22;114;48.260;10.988;2023-02-04T13:27:57;19.00;1.00
262;DHT22;114;48.260;10.988;2023-02-04T13:30:25;18.80;1.00
262;DHT22;114;48.260;10.988;2023-02-04T13:32:50;17.80;1.00
262;DHT22;114;48.260;10.988;2023-02-04T13:35:18;17.20;1.00
262;DHT22;114;48.260;10.988;2023-02-04T13:37:45;17.60;1.00
262;DHT22;114;48.260;10.988;2023-02-04T13:40:11;17.90;1.00
262;DHT22;114;48.260;10.988;2023-02-04T13:42:37;16.10;1.00
262;DHT22;114;48.260;10.988;2023-02-04T13:45:03;13.60;1.00
262;DHT22;114;48.260;10.988;2023-02-04T13:47:29;11.80;1.00
262;DHT22;114;48.260;10.988;2023-02-04T13:49:55;10.20;1.00
262;DHT22;114;48.260;10.988;2023-02-04T13:52:21;8.80;1.00
262;DHT22;114;48.260;10.988;2023-02-04T13:54:46;8.20;1.00
262;DHT22;114;48.260;10.988;2023-02-04T13:57:12;8.10;1.00
262;DHT22;114;48.260;10.988;2023-02-04T13:59:38;7.90;1.00
262;DHT22;114;48.260;10.988;2023-02-04T14:02:03;7.50;1.00
262;DHT22;114;48.260;10.988;2023-02-04T14:04:29;7.10;1.00
262;DHT22;114;48.260;10.988;2023-02-04T14:06:57;7.10;1.00
262;DHT22;114;48.260;10.988;2023-02-04T14:09:22;7.30;1.00
262;DHT22;114;48.260;10.988;2023-02-04T14:11:51;7.50;1.00
262;DHT22;114;48.260;10.988;2023-02-04T14:14:17;7.30;1.00
262;DHT22;114;48.260;10.988;2023-02-04T14:16:43;7.10;1.00
262;DHT22;114;48.260;10.988;2023-02-04T14:19:09;7.10;1.00
262;DHT22;114;48.260;10.988;2023-02-04T14:21:35;6.90;1.00
262;DHT22;114;48.260;10.988;2023-02-04T14:24:01;6.90;1.00
262;DHT22;114;48.260;10.988;2023-02-04T14:26:28;6.90;1.00
262;DHT22;114;48.260;10.988;2023-02-04T14:28:54;7.00;1.00
262;DHT22;114;48.260;10.988;2023-02-04T14:31:22;7.00;1.00
262;DHT22;114;48.260;10.988;2023-02-04T14:33:47;6.80;1.00
262;DHT22;114;48.260;10.988;2023-02-04T14:36:14;6.70;1.00
262;DHT22;114;48.260;10.988;2023-02-04T14:38:40;6.70;1.00
262;DHT22;114;48.260;10.988;2023-02-04T14:41:07;6.60;1.00
262;DHT22;114;48.260;10.988;2023-02-04T14:43:33;6.10;1.00
262;DHT22;114;48.260;10.988;2023-02-04T14:46:03;5.80;1.00
262;DHT22;114;48.260;10.988;2023-02-04T14:48:30;5.90;1.00
262;DHT22;114;48.260;10.988;2023-02-04T14:50:56;5.90;1.00
262;DHT22;114;48.260;10.988;2023-02-04T14:53:23;5.80;1.00
262;DHT22;114;48.260;10.988;2023-02-04T14:55:50;5.80;1.00
262;DHT22;114;48.260;10.988;2023-02-04T14:58:15;5.80;1.00
262;DHT22;114;48.260;10.988;2023-02-04T15:00:41;5.70;1.00
262;DHT22;114;48.260;10.988;2023-02-04T15:03:07;5.50;1.00
262;DHT22;114;48.260;10.988;2023-02-04T15:05:33;5.20;1.00
262;DHT22;114;48.260;10.988;2023-02-04T15:07:58;5.10;1.00
262;DHT22;114;48.260;10.988;2023-02-04T15:10:25;5.20;1.00
262;DHT22;114;48.260;10.988;2023-02-04T15:12:53;5.20;1.00
262;DHT22;114;48.260;10.988;2023-02-04T15:15:20;5.20;1.00
262;DHT22;114;48.260;10.988;2023-02-04T15:17:46;5.10;1.00
262;DHT22;114;48.260;10.988;2023-02-04T15:20:12;5.30;1.00
262;DHT22;114;48.260;10.988;2023-02-04T15:22:38;5.30;1.00
262;DHT22;114;48.260;10.988;2023-02-04T15:25:04;5.20;1.00
262;DHT22;114;48.260;10.988;2023-02-04T15:27:30;5.00;1.00
262;DHT22;114;48.260;10.988;2023-02-04T15:29:56;4.90;1.00
262;DHT22;114;48.260;10.988;2023-02-04T15:32:22;4.90;1.00
262;DHT22;114;48.260;10.988;2023-02-04T15:34:48;4.80;1.00
262;DHT22;114;48.260;10.988;2023-02-04T15:37:14;4.80;1.00
262;DHT22;114;48.260;10.988;2023-02-04T15:39:41;4.70;1.00
262;DHT22;114;48.260;10.988;2023-02-04T15:42:08;4.60;1.80
262;DHT22;114;48.260;10.988;2023-02-04T15:44:34;4.40;3.10
262;DHT22;114;48.260;10.988;2023-02-04T15:47:00;4.20;5.20
262;DHT22;114;48.260;10.988;2023-02-04T15:49:26;4.10;6.50
262;DHT22;114;48.260;10.988;2023-02-04T15:51:52;4.00;8.10
262;DHT22;114;48.260;10.988;2023-02-04T15:54:18;3.80;9.40
262;DHT22;114;48.260;10.988;2023-02-04T15:56:45;3.70;11.00
262;DHT22;114;48.260;10.988;2023-02-04T15:59:10;3.70;11.70
262;DHT22;114;48.260;10.988;2023-02-04T16:01:36;3.50;13.80
262;DHT22;114;48.260;10.988;2023-02-04T16:04:02;3.40;15.10
262;DHT22;114;48.260;10.988;2023-02-04T16:06:32;3.40;16.00
262;DHT22;114;48.260;10.988;2023-02-04T16:09:00;3.30;17.60
262;DHT22;114;48.260;10.988;2023-02-04T16:11:26;3.30;18.20
262;DHT22;114;48.260;10.988;2023-02-04T16:13:52;3.30;17.60
262;DHT22;114;48.260;10.988;2023-02-04T16:16:19;3.20;17.60
262;DHT22;114;48.260;10.988;2023-02-04T16:18:45;3.20;17.90
262;DHT22;114;48.260;10.988;2023-02-04T16:21:12;3.10;18.20
262;DHT22;114;48.260;10.988;2023-02-04T16:23:39;3.10;18.60
262;DHT22;114;48.260;10.988;2023-02-04T16:26:05;3.00;19.70
262;DHT22;114;48.260;10.988;2023-02-04T16:28:32;2.90;20.10
262;DHT22;114;48.260;10.988;2023-02-04T16:30:59;2.90;20.60
262;DHT22;114;48.260;10.988;2023-02-04T16:33:24;2.90;21.20
262;DHT22;114;48.260;10.988;2023-02-04T16:36:05;2.90;21.00
262;DHT22;114;48.260;10.988;2023-02-04T16:38:33;2.90;21.40
262;DHT22;114;48.260;10.988;2023-02-04T16:41:02;2.80;21.30
262;DHT22;114;48.260;10.988;2023-02-04T16:43:29;2.80;22.00
262;DHT22;114;48.260;10.988;2023-02-04T16:45:55;2.70;22.10
262;DHT22;114;48.260;10.988;2023-02-04T16:48:22;2.70;22.60
262;DHT22;114;48.260;10.988;2023-02-04T16:50:50;2.70;22.00